createdAt,value
2022-12-23T09:25:42.935Z,51.45
2022-12-23T09:27:45.695Z,57.15
2022-12-23T09:29:48.003Z,59.30
2022-12-23T09:31:50.325Z,58.20
2022-12-23T09:33:53.942Z,55.72
2022-12-23T09:36:00.087Z,56.00
2022-12-23T09:38:02.444Z,56.30
2022-12-23T09:40:05.426Z,48.78
2022-12-23T09:42:21.962Z,55.08
2022-12-23T09:44:36.271Z,51.03
2022-12-23T09:46:51.612Z,46.58
2022-12-23T09:49:02.849Z,43.13
2022-12-23T09:51:05.945Z,55.58
2022-12-23T09:53:25.246Z,45.15
2022-12-23T09:55:57.514Z,45.47
2022-12-23T09:58:05.004Z,44.22
2022-12-23T10:00:13.177Z,34.83
2022-12-23T10:02:44.207Z,45.60
2022-12-23T10:05:14.064Z,42.62
2022-12-23T10:07:24.165Z,45.63
2022-12-23T10:09:28.644Z,42.97
2022-12-23T10:11:57.631Z,43.42
2022-12-23T10:14:09.462Z,43.65
2022-12-23T10:16:18.251Z,47.28
2022-12-23T10:18:26.810Z,45.85
2022-12-23T10:20:48.284Z,51.80
2022-12-23T10:22:51.477Z,48.42
2022-12-23T10:24:57.734Z,47.28
2022-12-23T10:27:04.359Z,44.53
2022-12-23T10:29:34.657Z,41.95
2022-12-23T10:31:59.242Z,40.45
2022-12-23T10:34:19.803Z,45.95
2022-12-23T10:36:45.650Z,48.20
2022-12-23T10:38:52.520Z,47.40
2022-12-23T10:41:09.558Z,45.72
2022-12-23T10:43:38.370Z,49.92
2022-12-23T10:46:02.225Z,48.08
2022-12-23T10:48:40.334Z,44.42
2022-12-23T10:50:58.490Z,45.40
2022-12-23T10:53:04.894Z,43.65
2022-12-23T10:55:21.309Z,52.28
2022-12-23T10:57:24.828Z,50.22
2022-12-23T10:59:29.883Z,50.55
2022-12-23T11:01:33.200Z,51.65
2022-12-23T11:03:44.088Z,56.28
2022-12-23T11:05:48.925Z,48.25
2022-12-23T11:07:51.781Z,52.08
2022-12-23T11:10:07.830Z,45.47
2022-12-23T11:12:11.998Z,51.37
2022-12-23T11:14:31.407Z,51.55
2022-12-23T11:16:33.838Z,48.85
2022-12-23T11:18:41.794Z,50.72
2022-12-23T11:21:00.925Z,48.30
2022-12-23T11:23:05.246Z,47.30
2022-12-23T11:25:41.791Z,51.92
2022-12-23T11:27:45.965Z,54.45
2022-12-23T11:29:54.625Z,48.63
2022-12-23T11:31:57.537Z,48.58
2022-12-23T11:34:03.432Z,51.67
2022-12-23T11:36:23.942Z,56.55
2022-12-23T11:38:26.339Z,53.38
2022-12-23T11:40:32.770Z,52.35
2022-12-23T11:42:35.275Z,51.72
2022-12-23T11:44:44.950Z,58.92
2022-12-23T11:46:48.114Z,54.78
2022-12-23T11:49:04.845Z,56.28
2022-12-23T11:51:07.341Z,54.58
2022-12-23T11:53:12.206Z,62.00
2022-12-23T11:55:25.134Z,52.88
2022-12-23T11:57:44.874Z,50.28
2022-12-23T11:59:50.049Z,55.88
2022-12-23T12:01:53.227Z,58.90
2022-12-23T12:04:01.369Z,47.70
2022-12-23T12:06:07.323Z,61.80
2022-12-23T12:08:14.093Z,63.20
2022-12-23T12:10:27.203Z,66.60
2022-12-23T12:12:30.235Z,70.30
2022-12-23T12:14:54.492Z,59.42
2022-12-23T12:17:08.206Z,62.62
2022-12-23T12:19:31.871Z,49.95
2022-12-23T12:21:38.943Z,67.80
2022-12-23T12:23:41.592Z,61.65
2022-12-23T12:26:06.975Z,56.78
2022-12-23T12:28:22.530Z,64.45
2022-12-23T12:30:34.151Z,54.95
2022-12-23T12:32:55.222Z,56.97
2022-12-23T12:35:05.560Z,62.08
2022-12-23T12:37:14.087Z,56.40
2022-12-23T12:39:34.082Z,62.45
2022-12-23T12:41:51.276Z,60.15
2022-12-23T12:44:06.165Z,58.87
2022-12-23T12:46:32.668Z,61.20
2022-12-23T12:48:40.353Z,57.20
2022-12-23T12:50:56.421Z,65.70
2022-12-23T12:53:12.546Z,60.28
2022-12-23T12:55:29.664Z,65.87
2022-12-23T12:57:35.741Z,53.60
2022-12-23T12:59:40.205Z,55.50
2022-12-23T13:01:49.885Z,63.83
2022-12-23T13:03:55.508Z,56.72
2022-12-23T13:06:25.316Z,63.87
2022-12-23T13:08:33.524Z,64.53
2022-12-23T13:10:48.009Z,65.50
2022-12-23T13:13:08.738Z,57.78
2022-12-23T13:15:23.697Z,54.78
2022-12-23T13:17:37.770Z,63.63
2022-12-23T13:20:02.026Z,58.92
2022-12-23T13:22:10.215Z,63.20
2022-12-23T13:24:18.994Z,59.65
2022-12-23T13:26:29.907Z,66.68
2022-12-23T13:28:43.992Z,60.05
2022-12-23T13:30:55.806Z,59.55
2022-12-23T13:33:16.544Z,63.25
2022-12-23T13:35:37.621Z,61.33
2022-12-23T13:37:54.099Z,59.28
2022-12-23T13:40:12.154Z,64.22
2022-12-23T13:42:28.648Z,71.72
2022-12-23T13:44:34.187Z,62.60
2022-12-23T13:47:15.985Z,62.03
2022-12-23T13:49:27.646Z,63.03
2022-12-23T13:51:35.788Z,63.28
2022-12-23T13:53:43.921Z,73.70
2022-12-23T13:56:04.898Z,65.03
2022-12-23T13:58:11.843Z,69.80
2022-12-23T14:00:17.380Z,66.05
2022-12-23T14:02:49.522Z,65.87
2022-12-23T14:04:59.748Z,70.03
2022-12-23T14:07:24.514Z,55.60
2022-12-23T14:09:35.497Z,55.97
2022-12-23T14:11:38.239Z,62.33
2022-12-23T14:13:49.691Z,62.13
2022-12-23T14:16:18.373Z,63.30
2022-12-23T14:18:34.742Z,62.13
2022-12-23T14:21:01.929Z,74.25
2022-12-23T14:23:12.056Z,72.78
2022-12-23T14:25:55.801Z,55.12
2022-12-23T14:28:10.101Z,66.18
2022-12-23T14:30:22.310Z,64.05
2022-12-23T14:32:28.053Z,43.95
2022-12-23T14:34:33.395Z,63.15
2022-12-23T14:36:36.059Z,57.67
2022-12-23T14:38:39.394Z,65.47
2022-12-23T14:40:41.696Z,65.87
2022-12-23T14:42:45.025Z,65.68
2022-12-23T14:44:50.342Z,55.78
2022-12-23T14:46:55.567Z,65.00
2022-12-23T14:49:29.959Z,50.10
2022-12-23T14:51:33.924Z,56.35
2022-12-23T14:53:56.679Z,55.90
2022-12-23T14:56:08.286Z,57.67
2022-12-23T14:58:34.317Z,57.25
2022-12-23T15:00:47.293Z,56.67
2022-12-23T15:02:55.099Z,61.90
2022-12-23T15:04:59.101Z,53.13
2022-12-23T15:07:15.259Z,62.45
2022-12-23T15:09:27.558Z,55.92
2022-12-23T15:11:33.128Z,62.30
2022-12-23T15:13:37.103Z,60.75
2022-12-23T15:15:55.861Z,57.15
2022-12-23T15:18:21.736Z,57.75
2022-12-23T15:20:25.593Z,58.22
2022-12-23T15:22:32.618Z,63.38
2022-12-23T15:24:35.250Z,55.25
2022-12-23T15:26:39.209Z,52.80
2022-12-23T15:28:49.928Z,56.47
2022-12-23T15:30:54.979Z,52.88
2022-12-23T15:33:16.088Z,56.30
2022-12-23T15:35:32.374Z,64.18
2022-12-23T15:37:35.145Z,63.65
2022-12-23T15:39:40.927Z,58.40
2022-12-23T15:41:45.779Z,61.20
2022-12-23T15:43:48.585Z,65.35
2022-12-23T15:45:51.522Z,60.28
2022-12-23T15:47:54.180Z,67.78
2022-12-23T15:50:01.174Z,71.37
2022-12-23T15:52:08.832Z,65.25
2022-12-23T15:54:21.683Z,62.50
2022-12-23T15:56:27.104Z,71.07
2022-12-23T15:58:32.968Z,65.05
2022-12-23T16:00:41.495Z,69.62
2022-12-23T16:03:02.429Z,61.65
2022-12-23T16:05:06.316Z,61.25
2022-12-23T16:07:25.678Z,62.03
2022-12-23T16:09:34.925Z,57.47
2022-12-23T16:12:00.645Z,49.30
2022-12-23T16:14:34.923Z,63.42
2022-12-23T16:16:42.299Z,55.22
2022-12-23T16:18:47.619Z,57.78
2022-12-23T16:20:57.793Z,61.08
2022-12-23T16:23:03.100Z,62.62
2022-12-23T16:25:23.055Z,65.75
2022-12-23T16:27:54.682Z,71.80
2022-12-23T16:30:02.454Z,58.80
2022-12-23T16:32:05.150Z,58.22
2022-12-23T16:34:07.952Z,57.88
2022-12-23T16:36:26.044Z,61.88
2022-12-23T16:38:30.244Z,55.33
2022-12-23T16:40:32.763Z,59.60
2022-12-23T16:42:35.449Z,65.55
2022-12-23T16:44:37.805Z,58.55
2022-12-23T16:46:43.624Z,56.75
2022-12-23T16:48:55.416Z,68.50
2022-12-23T16:50:59.381Z,71.93
2022-12-23T16:53:01.789Z,61.35
2022-12-23T16:55:16.453Z,64.95
2022-12-23T16:57:18.772Z,55.28
2022-12-23T16:59:21.143Z,67.35
2022-12-23T17:01:27.705Z,68.15
2022-12-23T17:03:30.223Z,59.60
2022-12-23T17:05:32.658Z,59.17
2022-12-23T17:07:38.710Z,63.45
2022-12-23T17:09:43.940Z,65.87
2022-12-23T17:11:52.880Z,61.22
2022-12-23T17:14:01.586Z,66.05
2022-12-23T17:16:20.532Z,65.37
2022-12-23T17:18:23.009Z,80.65
2022-12-23T17:20:25.787Z,73.78
2022-12-23T17:22:28.745Z,68.47
2022-12-23T17:24:31.509Z,67.28
2022-12-23T17:26:34.195Z,62.42
2022-12-23T17:28:36.507Z,58.28
2022-12-23T17:30:41.022Z,66.15
2022-12-23T17:32:55.389Z,69.82
2022-12-23T17:34:57.675Z,66.82
2022-12-23T17:37:01.971Z,54.80
2022-12-23T17:39:05.123Z,59.85
2022-12-23T17:41:25.382Z,59.25
2022-12-23T17:43:27.766Z,56.27
2022-12-23T17:45:31.115Z,55.17
2022-12-23T17:47:33.718Z,60.58
2022-12-23T17:49:36.008Z,68.82
2022-12-23T17:51:40.019Z,64.22
2022-12-23T17:53:42.850Z,59.22
2022-12-23T17:55:45.324Z,60.08
2022-12-23T17:57:48.293Z,58.08
2022-12-23T17:59:52.736Z,57.42
2022-12-23T18:01:55.472Z,59.55
2022-12-23T18:03:59.823Z,62.22
2022-12-23T18:06:02.626Z,72.80
2022-12-23T18:08:05.389Z,63.85
2022-12-23T18:10:12.648Z,66.85
2022-12-23T18:12:32.846Z,64.43
2022-12-23T18:14:35.207Z,70.43
2022-12-23T18:16:37.908Z,69.90
2022-12-23T18:18:46.286Z,60.40
2022-12-23T18:20:52.579Z,73.35
2022-12-23T18:22:55.484Z,67.12
2022-12-23T18:24:59.511Z,67.53
2022-12-23T18:27:02.127Z,74.20
2022-12-23T18:29:04.719Z,63.72
2022-12-23T18:31:17.337Z,67.18
2022-12-23T18:33:19.671Z,60.20
2022-12-23T18:35:24.599Z,69.82
2022-12-23T18:37:27.055Z,70.32
2022-12-23T18:39:29.411Z,65.03
2022-12-23T18:41:32.112Z,74.10
2022-12-23T18:43:34.432Z,68.65
2022-12-23T18:45:41.818Z,70.87
2022-12-23T18:47:44.602Z,72.20
2022-12-23T18:49:46.917Z,67.15
2022-12-23T18:51:49.384Z,65.18
2022-12-23T18:53:52.085Z,66.18
2022-12-23T18:55:55.423Z,65.47
2022-12-23T18:57:59.922Z,63.85
2022-12-23T19:00:07.190Z,70.47
2022-12-23T19:02:14.241Z,65.18
2022-12-23T19:04:16.755Z,71.70
2022-12-23T19:06:19.648Z,70.80
2022-12-23T19:08:27.087Z,64.72
2022-12-23T19:10:35.388Z,62.35
2022-12-23T19:12:38.056Z,57.88
2022-12-23T19:14:40.533Z,88.47
2022-12-23T19:16:49.289Z,60.33
2022-12-23T19:20:56.131Z,63.13
2022-12-23T19:22:58.492Z,65.25
2022-12-23T19:25:06.393Z,55.17
2022-12-23T19:27:09.295Z,54.95
2022-12-23T19:29:11.768Z,62.85
2022-12-23T19:31:16.268Z,63.53
2022-12-23T19:33:18.749Z,65.40
2022-12-23T19:35:21.166Z,56.37
2022-12-23T19:37:23.938Z,59.08
2022-12-23T19:39:27.094Z,62.92
2022-12-23T19:41:29.588Z,60.83
2022-12-23T19:43:32.180Z,63.28
2022-12-23T19:45:34.583Z,54.60
2022-12-23T19:47:37.540Z,58.08
2022-12-23T19:49:40.289Z,58.55
2022-12-23T19:51:42.669Z,63.30
2022-12-23T19:53:46.328Z,61.85
2022-12-23T19:56:15.906Z,64.85
2022-12-23T19:58:18.278Z,57.05
2022-12-23T20:00:20.953Z,57.62
2022-12-23T20:02:23.984Z,55.75
2022-12-23T20:04:26.673Z,55.75
2022-12-23T20:06:34.480Z,61.75
2022-12-23T20:08:37.165Z,57.28
2022-12-23T20:10:39.497Z,56.08
2022-12-23T20:12:41.918Z,51.60
2022-12-23T20:14:44.768Z,63.85
2022-12-23T20:16:48.589Z,52.70
2022-12-23T20:18:51.492Z,63.80
2022-12-23T20:20:54.419Z,64.03
2022-12-23T20:22:57.060Z,64.10
2022-12-23T20:24:59.921Z,64.28
2022-12-23T20:27:07.814Z,57.95
2022-12-23T20:29:13.233Z,63.83
2022-12-23T20:31:30.936Z,58.97
2022-12-23T20:33:35.563Z,59.58
2022-12-23T20:35:38.116Z,64.90
2022-12-23T20:37:40.484Z,66.90
2022-12-23T20:39:43.324Z,69.12
2022-12-23T20:41:45.848Z,59.03
2022-12-23T20:44:02.914Z,60.80
2022-12-23T20:46:14.433Z,66.43
2022-12-23T20:48:18.315Z,67.57
2022-12-23T20:50:21.378Z,58.75
2022-12-23T20:52:25.602Z,58.70
2022-12-23T20:54:32.532Z,58.42
2022-12-23T20:56:36.382Z,71.93
2022-12-23T20:58:54.753Z,58.35
2022-12-23T21:01:08.644Z,62.03
2022-12-23T21:03:11.196Z,52.88
2022-12-23T21:05:13.899Z,54.97
2022-12-23T21:07:16.304Z,60.47
2022-12-23T21:09:18.687Z,63.72
2022-12-23T21:11:23.397Z,62.72
2022-12-23T21:13:25.982Z,52.13
2022-12-23T21:15:28.396Z,55.08
2022-12-23T21:17:31.258Z,48.40
2022-12-23T21:19:34.926Z,51.25
2022-12-23T21:21:37.276Z,59.08
2022-12-23T21:23:41.655Z,52.47
2022-12-23T21:25:43.987Z,49.72
2022-12-23T21:27:46.340Z,52.55
2022-12-23T21:29:48.964Z,54.20
2022-12-23T21:31:51.351Z,54.22
2022-12-23T21:33:54.197Z,50.03
2022-12-23T21:35:56.959Z,50.92
2022-12-23T21:37:59.296Z,51.72
2022-12-23T21:40:01.821Z,48.33
2022-12-23T21:42:04.587Z,52.67
2022-12-23T21:44:07.828Z,53.50
2022-12-23T21:46:13.289Z,49.60
2022-12-23T21:48:15.921Z,58.87
2022-12-23T21:50:18.191Z,47.08
2022-12-23T21:52:20.526Z,45.33
2022-12-23T21:54:23.131Z,40.97
2022-12-23T21:56:30.957Z,46.10
2022-12-23T21:58:33.773Z,45.67
2022-12-23T22:00:36.403Z,40.00
2022-12-23T22:02:39.406Z,49.05
2022-12-23T22:04:41.927Z,39.70
2022-12-23T22:06:45.104Z,49.85
2022-12-23T22:08:48.572Z,53.00
2022-12-23T22:10:50.914Z,48.17
2022-12-23T22:12:53.232Z,51.22
2022-12-23T22:14:55.815Z,41.85
2022-12-23T22:16:58.161Z,47.97
2022-12-23T22:19:01.604Z,43.80
2022-12-23T22:21:09.128Z,47.22
2022-12-23T22:23:11.386Z,48.47
2022-12-23T22:25:13.697Z,42.22
2022-12-23T22:27:16.327Z,47.58
2022-12-23T22:29:18.698Z,54.75
2022-12-23T22:31:29.749Z,42.38
2022-12-23T22:33:33.399Z,46.08
2022-12-23T22:35:35.659Z,46.72
2022-12-23T22:37:37.999Z,43.33
2022-12-23T22:39:40.579Z,45.50
2022-12-23T22:41:42.987Z,39.72
2022-12-23T22:43:45.302Z,37.50
2022-12-23T22:45:56.136Z,40.85
2022-12-23T22:47:58.643Z,46.10
2022-12-23T22:50:01.214Z,45.42
2022-12-23T22:52:04.035Z,39.15
2022-12-23T22:54:06.632Z,38.53
2022-12-23T22:56:12.204Z,33.15
2022-12-23T22:58:14.795Z,35.20
2022-12-23T23:00:17.317Z,34.47
2022-12-23T23:02:19.649Z,36.70
2022-12-23T23:04:22.738Z,35.55
2022-12-23T23:06:27.310Z,36.97
